Time;durP1;ratioP1;P1;durP2;ratioP2;P2;SDS_P1;SDS_P2;PMS_P1;PMS_P2;Temp;Humidity;BMP_temperature;BMP_pressure;BME280_temperature;BME280_humidity;BME280_pressure;Samples;Min_cycle;Max_cycle;Signal;HPM_P1;HPM_P2
2023/06/18 00:00:14;;;;;;;15.77;14.15;;;24.60;58.30;;;;;;4208251;28;20118;-59
2023/06/18 00:02:55;;;;;;;16.55;14.85;;;24.60;58.20;;;;;;4211937;28;20192;-59
2023/06/18 00:05:37;;;;;;;16.58;14.88;;;24.60;58.10;;;;;;4224664;27;20050;-59
2023/06/18 00:08:19;;;;;;;16.30;14.57;;;24.60;58.00;;;;;;4210883;28;20137;-58
2023/06/18 00:11:00;;;;;;;15.98;14.38;;;24.60;58.00;;;;;;4209361;28;20055;-58
2023/06/18 00:13:41;;;;;;;;;;;24.60;57.90;;;;;;4226725;28;20518;-59
2023/06/18 00:16:21;;;;;;;17.92;15.23;;;24.60;57.90;;;;;;4231703;27;19927;-59
2023/06/18 00:19:02;;;;;;;17.33;14.45;;;24.60;58.10;;;;;;4242953;27;20049;-59
2023/06/18 00:21:43;;;;;;;16.77;14.82;;;24.60;58.00;;;;;;4209117;28;20074;-59
2023/06/18 00:24:26;;;;;;;18.20;15.63;;;24.60;57.80;;;;;;4209341;28;20055;-59
2023/06/18 00:27:07;;;;;;;16.30;14.70;;;24.50;57.80;;;;;;4209101;28;20421;-59
2023/06/18 00:29:48;;;;;;;16.15;14.43;;;24.50;57.80;;;;;;4209091;28;20075;-59
2023/06/18 00:32:30;;;;;;;16.23;14.63;;;24.50;57.60;;;;;;4209276;28;20154;-59
2023/06/18 00:35:12;;;;;;;16.60;14.82;;;24.50;57.50;;;;;;4239558;27;20099;-59
2023/06/18 00:37:54;;;;;;;19.17;16.40;;;24.50;57.70;;;;;;4229275;27;20038;-60
2023/06/18 00:40:36;;;;;;;15.90;13.82;;;24.50;57.90;;;;;;4209320;28;20121;-59
2023/06/18 00:43:18;;;;;;;18.08;15.60;;;24.50;58.00;;;;;;4208986;28;20050;-60
2023/06/18 00:46:00;;;;;;;;;;;24.50;58.00;;;;;;4208299;28;20055;-60
2023/06/18 00:48:41;;;;;;;17.90;15.98;;;24.50;57.90;;;;;;4208791;28;19935;-60
2023/06/18 00:51:26;;;;;;;17.05;15.15;;;24.50;57.80;;;;;;4209204;28;20055;-59
2023/06/18 00:54:07;;;;;;;18.20;16.20;;;24.50;57.70;;;;;;4219147;27;20059;-59
2023/06/18 00:56:51;;;;;;;;;;;24.40;57.80;;;;;;4208244;28;20055;-60
2023/06/18 00:59:32;;;;;;;17.10;15.35;;;24.40;58.70;;;;;;4207591;28;19976;-59
2023/06/18 01:02:13;;;;;;;18.77;15.93;;;24.40;58.10;;;;;;4222487;27;20066;-59
2023/06/18 01:04:56;;;;;;;;;;;24.40;58.20;;;;;;4243096;27;20050;-60
2023/06/18 01:07:39;;;;;;;16.65;14.65;;;24.40;58.20;;;;;;4242428;27;19946;-59
2023/06/18 01:10:21;;;;;;;16.98;15.00;;;24.40;58.30;;;;;;4241199;27;20172;-59
2023/06/18 01:13:07;;;;;;;18.27;14.98;;;24.30;58.10;;;;;;4233485;27;20050;-59
2023/06/18 01:15:48;;;;;;;17.88;15.55;;;24.30;58.10;;;;;;4244709;27;20050;-60
2023/06/18 01:18:34;;;;;;;16.75;15.02;;;24.30;58.10;;;;;;4243928;27;20050;-59
2023/06/18 01:21:19;;;;;;;18.08;16.00;;;24.30;58.10;;;;;;4245951;27;20058;-60
2023/06/18 01:24:04;;;;;;;19.00;16.92;;;24.30;58.80;;;;;;4244730;27;20051;-60
2023/06/18 01:26:45;;;;;;;19.02;15.73;;;24.30;58.10;;;;;;4241117;27;20463;-60
2023/06/18 01:29:28;;;;;;;;;;;24.30;58.10;;;;;;4227730;28;20112;-60
2023/06/18 01:32:09;;;;;;;17.55;15.32;;;24.30;58.10;;;;;;4209375;28;19934;-61
2023/06/18 01:34:53;;;;;;;19.13;16.40;;;24.30;59.00;;;;;;4209121;28;20071;-60
2023/06/18 01:37:44;;;;;;;21.52;17.77;;;24.30;58.20;;;;;;4199015;28;20047;-61
2023/06/18 01:40:35;;;;;;;21.25;17.13;;;24.30;58.10;;;;;;4210432;28;20055;-61
2023/06/18 01:43:23;;;;;;;18.98;16.95;;;24.20;57.90;;;;;;4209975;28;20098;-59
2023/06/18 01:46:08;;;;;;;18.55;15.82;;;24.30;58.00;;;;;;4211490;28;20399;-60
2023/06/18 01:48:53;;;;;;;19.65;16.27;;;24.30;58.00;;;;;;4211565;28;20071;-60
2023/06/18 01:51:36;;;;;;;23.42;18.42;;;24.30;58.00;;;;;;4214322;28;20059;-60
2023/06/18 01:54:18;;;;;;;20.85;18.60;;;24.20;57.80;;;;;;4211638;28;20121;-60
2023/06/18 01:56:59;;;;;;;24.63;18.55;;;24.20;57.70;;;;;;4211520;28;20201;-60
2023/06/18 01:59:41;;;;;;;27.83;15.55;;;24.20;57.70;;;;;;4208792;28;20062;-60
2023/06/18 02:02:23;;;;;;;30.02;15.25;;;24.20;57.50;;;;;;4231388;27;20508;-60
2023/06/18 02:05:06;;;;;;;34.95;13.20;;;24.20;57.30;;;;;;4245553;27;20401;-59
2023/06/18 02:07:47;;;;;;;33.38;14.68;;;24.10;57.30;;;;;;4244338;27;20123;-60
2023/06/18 02:10:28;;;;;;;31.23;15.10;;;24.10;57.30;;;;;;4244004;27;20045;-61
2023/06/18 02:13:10;;;;;;;25.33;13.60;;;24.10;57.50;;;;;;4245147;27;20127;-60
2023/06/18 02:15:51;;;;;;;21.50;12.35;;;24.10;57.60;;;;;;4220926;27;20051;-60
2023/06/18 02:18:33;;;;;;;19.73;13.20;;;24.10;57.90;;;;;;4228175;27;20126;-61
2023/06/18 02:21:14;;;;;;;14.52;13.00;;;24.00;58.00;;;;;;4216444;27;20058;-60
2023/06/18 02:23:55;;;;;;;15.50;12.60;;;24.00;58.90;;;;;;4245100;27;20042;-60
2023/06/18 02:26:36;;;;;;;27.45;12.38;;;24.00;58.20;;;;;;4244689;27;20120;-61
2023/06/18 02:29:18;;;;;;;18.67;13.27;;;23.90;58.30;;;;;;4245030;27;20494;-61
2023/06/18 02:31:58;;;;;;;14.05;11.65;;;23.90;58.40;;;;;;4232382;27;20051;-61
2023/06/18 02:34:41;;;;;;;15.05;12.18;;;23.90;58.40;;;;;;4227594;27;20054;-61
2023/06/18 02:37:23;;;;;;;17.05;11.85;;;23.90;58.40;;;;;;4226629;28;20427;-61
2023/06/18 02:40:04;;;;;;;;;;;23.90;58.40;;;;;;4199632;28;20502;-61
2023/06/18 02:42:48;;;;;;;18.00;11.25;;;23.90;58.30;;;;;;4210362;28;20024;-61
2023/06/18 02:45:30;;;;;;;17.40;11.25;;;23.90;58.30;;;;;;4208468;28;20092;-61
2023/06/18 02:48:10;;;;;;;;;;;23.90;57.50;;;;;;4212583;28;20153;-61
2023/06/18 02:50:52;;;;;;;15.15;10.38;;;23.80;58.00;;;;;;4235205;27;19931;-60
2023/06/18 02:53:33;;;;;;;11.52;10.52;;;23.80;58.20;;;;;;4226160;27;20046;-60
2023/06/18 02:56:17;;;;;;;14.45;10.35;;;23.80;58.40;;;;;;4226409;28;20051;-61
2023/06/18 02:58:58;;;;;;;17.45;11.13;;;23.80;58.70;;;;;;4226324;27;20050;-60
2023/06/18 03:01:41;;;;;;;16.67;10.70;;;23.80;58.90;;;;;;4243013;27;20152;-59
2023/06/18 03:04:22;;;;;;;;;;;23.80;58.80;;;;;;4243335;27;20054;-59
2023/06/18 03:07:05;;;;;;;12.60;11.50;;;23.80;58.60;;;;;;4226153;27;19972;-60
2023/06/18 03:09:47;;;;;;;13.95;12.05;;;23.70;58.70;;;;;;4243085;27;20126;-61
2023/06/18 03:12:28;;;;;;;12.50;11.32;;;23.70;58.80;;;;;;4243188;27;20050;-59
2023/06/18 03:15:11;;;;;;;13.02;11.68;;;23.70;59.00;;;;;;4243214;27;20143;-61
2023/06/18 03:17:52;;;;;;;12.88;11.77;;;23.70;59.20;;;;;;4242412;27;20050;-60
2023/06/18 03:20:34;;;;;;;12.10;11.00;;;23.70;59.10;;;;;;4242371;27;20102;-60
2023/06/18 03:23:17;;;;;;;12.52;11.52;;;23.70;59.10;;;;;;4228886;27;20050;-59
2023/06/18 03:26:01;;;;;;;13.27;12.18;;;23.70;59.10;;;;;;4226777;27;20176;-59
2023/06/18 03:28:46;;;;;;;13.05;11.85;;;23.70;59.00;;;;;;4192161;28;20055;-60
2023/06/18 03:31:27;;;;;;;12.57;11.50;;;23.70;58.90;;;;;;4175511;28;20052;-59
2023/06/18 03:34:09;;;;;;;;;;;23.70;59.60;;;;;;4176222;28;20052;-59
2023/06/18 03:36:50;;;;;;;;;;;23.70;58.90;;;;;;4180329;28;20266;-59
2023/06/18 03:39:35;;;;;;;11.82;10.80;;;23.70;59.00;;;;;;4187653;28;20073;-59
2023/06/18 03:42:16;;;;;;;16.20;12.48;;;23.70;59.10;;;;;;4175626;28;20191;-60
2023/06/18 03:44:57;;;;;;;;;;;23.70;59.10;;;;;;4177193;28;20060;-60
2023/06/18 03:47:39;;;;;;;19.05;13.10;;;23.70;59.00;;;;;;4191753;28;20610;-60
2023/06/18 03:50:20;;;;;;;;;;;23.70;59.10;;;;;;4192202;28;20055;-59
2023/06/18 03:53:02;;;;;;;17.77;12.27;;;23.60;59.00;;;;;;4191942;28;19927;-59
2023/06/18 03:55:45;;;;;;;12.93;11.73;;;23.60;59.00;;;;;;4191468;28;20214;-59
2023/06/18 03:58:30;;;;;;;14.00;10.75;;;23.60;58.90;;;;;;4191861;28;20490;-59
2023/06/18 04:01:12;;;;;;;13.52;11.13;;;23.60;59.00;;;;;;4191655;28;20117;-60
2023/06/18 04:03:53;;;;;;;;;;;23.70;59.10;;;;;;4180869;28;20047;-60
2023/06/18 04:06:34;;;;;;;16.58;9.98;;;23.60;59.00;;;;;;4193143;28;19931;-59
2023/06/18 04:09:15;;;;;;;17.23;9.50;;;23.60;58.90;;;;;;4186222;28;20141;-59
2023/06/18 04:12:00;;;;;;;20.83;10.48;;;23.60;58.80;;;;;;4174972;28;20248;-59
2023/06/18 04:14:42;;;;;;;17.52;9.75;;;23.60;58.50;;;;;;4174798;28;20799;-59
2023/06/18 04:17:26;;;;;;;16.50;9.50;;;23.60;58.60;;;;;;4198018;28;20050;-59
2023/06/18 04:20:09;;;;;;;15.93;9.95;;;23.60;58.50;;;;;;4207752;28;20063;-60
2023/06/18 04:22:50;;;;;;;11.10;9.48;;;23.60;58.50;;;;;;4208943;28;20055;-60
2023/06/18 04:25:34;;;;;;;20.88;8.98;;;23.60;58.50;;;;;;4202221;28;20055;-61
2023/06/18 04:28:18;;;;;;;13.60;8.57;;;23.60;58.50;;;;;;4206758;28;20056;-60
2023/06/18 04:30:59;;;;;;;8.73;8.10;;;23.60;58.90;;;;;;4195963;28;20047;-60
2023/06/18 04:33:42;;;;;;;10.88;8.75;;;23.60;59.10;;;;;;4190661;28;20056;-60
2023/06/18 04:36:23;;;;;;;9.23;8.48;;;23.60;59.40;;;;;;4203586;28;20497;-60
2023/06/18 04:39:05;;;;;;;12.40;7.45;;;23.60;59.30;;;;;;4191109;28;20063;-60
2023/06/18 04:41:46;;;;;;;9.80;8.55;;;23.50;59.30;;;;;;4207900;28;20047;-60
2023/06/18 04:44:29;;;;;;;9.02;8.30;;;23.50;59.40;;;;;;4207685;28;20047;-61
2023/06/18 04:47:10;;;;;;;15.80;8.73;;;23.50;59.50;;;;;;4192370;28;20474;-60
2023/06/18 04:49:52;;;;;;;9.70;8.10;;;23.50;59.60;;;;;;4195147;28;20051;-60
2023/06/18 04:52:36;;;;;;;8.55;7.95;;;23.50;59.80;;;;;;4207844;28;20058;-60
2023/06/18 04:55:17;;;;;;;9.57;8.70;;;23.50;60.00;;;;;;4207626;28;20059;-60
2023/06/18 04:57:59;;;;;;;10.02;8.70;;;23.50;60.30;;;;;;4208862;28;20389;-60
2023/06/18 05:00:42;;;;;;;9.48;8.68;;;23.50;60.40;;;;;;4195684;28;20120;-59
2023/06/18 05:03:24;;;;;;;9.52;8.82;;;23.50;60.40;;;;;;4199997;28;20514;-60
2023/06/18 05:06:06;;;;;;;;;;;23.50;60.60;;;;;;4187573;28;20054;-60
2023/06/18 05:08:50;;;;;;;8.95;8.15;;;23.50;60.60;;;;;;4190920;28;19928;-60
2023/06/18 05:11:30;;;;;;;9.27;8.57;;;23.50;60.60;;;;;;4192083;28;20101;-59
2023/06/18 05:14:12;;;;;;;10.88;8.80;;;23.50;60.70;;;;;;4191064;28;20071;-60
2023/06/18 05:16:54;;;;;;;9.85;9.15;;;23.50;60.60;;;;;;4192164;28;20042;-60
2023/06/18 05:19:35;;;;;;;10.10;9.30;;;23.50;60.50;;;;;;4189313;28;20194;-56
2023/06/18 05:22:16;;;;;;;10.73;9.82;;;23.50;60.50;;;;;;4205415;28;20051;-60
2023/06/18 05:24:59;;;;;;;11.32;10.32;;;23.50;60.40;;;;;;4207177;28;20039;-60
2023/06/18 05:27:40;;;;;;;10.45;9.55;;;23.50;60.40;;;;;;4202849;28;20105;-59
2023/06/18 05:30:22;;;;;;;;;;;23.50;60.60;;;;;;4209434;28;20099;-59
2023/06/18 05:33:05;;;;;;;13.15;11.73;;;23.50;60.80;;;;;;4214107;28;20401;-60
2023/06/18 05:35:48;;;;;;;12.35;11.25;;;23.60;62.80;;;;;;4223259;28;20402;-59
2023/06/18 05:38:28;;;;;;;12.50;11.35;;;23.50;62.90;;;;;;4193327;28;20043;-59
2023/06/18 05:41:09;;;;;;;;;;;23.50;62.50;;;;;;4207660;28;20120;-59
2023/06/18 05:43:50;;;;;;;13.05;11.85;;;23.50;62.40;;;;;;4222184;28;20528;-58
2023/06/18 05:46:32;;;;;;;;;;;23.50;62.60;;;;;;4207671;28;20051;-60
2023/06/18 05:49:15;;;;;;;12.73;11.52;;;23.50;62.70;;;;;;4206966;28;20057;-60
2023/06/18 05:51:58;;;;;;;13.30;12.02;;;23.50;62.80;;;;;;4223776;28;20401;-60
2023/06/18 05:54:39;;;;;;;13.90;12.60;;;23.50;62.70;;;;;;4236754;27;20058;-60
2023/06/18 05:57:20;;;;;;;14.40;12.90;;;23.50;62.40;;;;;;4231274;27;20050;-60
2023/06/18 06:00:02;;;;;;;;;;;23.50;62.10;;;;;;4226548;28;20055;-60
2023/06/18 06:02:53;;;;;;;14.80;13.38;;;23.50;61.90;;;;;;4227318;28;19930;-60
2023/06/18 06:05:36;;;;;;;14.18;12.93;;;23.50;61.80;;;;;;4228432;27;20128;-60
2023/06/18 06:08:17;;;;;;;15.35;13.90;;;23.50;61.80;;;;;;4215497;27;20050;-60
2023/06/18 06:11:03;;;;;;;16.13;14.52;;;23.50;62.00;;;;;;4227432;28;20140;-60
2023/06/18 06:13:45;;;;;;;15.27;13.88;;;23.50;62.00;;;;;;4217255;27;20513;-60
2023/06/18 06:16:27;;;;;;;15.65;14.15;;;23.50;62.10;;;;;;4215273;28;20039;-51
2023/06/18 06:19:08;;;;;;;;;;;23.50;62.20;;;;;;4211533;28;20129;-59
2023/06/18 06:21:50;;;;;;;15.27;13.68;;;23.50;62.40;;;;;;4208731;28;19931;-59
2023/06/18 06:24:32;;;;;;;15.45;13.95;;;23.50;62.60;;;;;;4228837;27;20050;-59
2023/06/18 06:27:13;;;;;;;16.65;15.05;;;23.50;62.70;;;;;;4222305;27;20070;-59
2023/06/18 06:29:54;;;;;;;;;;;23.50;62.70;;;;;;4239529;27;20565;-59
2023/06/18 06:32:35;;;;;;;16.27;14.57;;;23.50;62.70;;;;;;4232682;27;19931;-59
2023/06/18 06:35:17;;;;;;;16.05;14.25;;;23.50;63.60;;;;;;4209791;28;20531;-60
2023/06/18 06:37:59;;;;;;;15.88;14.27;;;23.50;63.00;;;;;;4220739;28;20173;-59
2023/06/18 06:40:41;;;;;;;16.20;14.60;;;23.50;63.30;;;;;;4218372;28;20047;-59
2023/06/18 06:43:21;;;;;;;;;;;23.50;63.70;;;;;;4210238;28;20051;-60
2023/06/18 06:46:31;;;;;;;16.55;14.85;;;23.50;63.60;;;;;;4227048;28;19985;-59
2023/06/18 06:49:25;;;;;;;17.95;16.20;;;23.60;63.40;;;;;;4227774;27;20054;-59
2023/06/18 06:52:19;;;;;;;18.25;16.48;;;23.60;64.40;;;;;;4222940;28;20059;-59
2023/06/18 06:55:01;;;;;;;18.98;16.40;;;23.60;64.10;;;;;;4221917;27;20054;-59
2023/06/18 06:57:42;;;;;;;17.80;16.00;;;23.60;64.10;;;;;;4214811;27;20093;-60
2023/06/18 07:00:23;;;;;;;17.30;15.57;;;23.60;64.40;;;;;;4224922;28;20054;-61
2023/06/18 07:03:08;;;;;;;17.58;15.77;;;23.60;64.40;;;;;;4217803;28;20039;-60
2023/06/18 07:05:49;;;;;;;18.63;16.67;;;23.60;64.60;;;;;;4225325;27;20042;-57
2023/06/18 07:08:31;;;;;;;18.02;16.23;;;23.70;65.00;;;;;;4224061;27;20196;-59
2023/06/18 07:11:13;;;;;;;19.50;17.50;;;23.70;65.20;;;;;;4209896;28;20082;-60
2023/06/18 07:13:54;;;;;;;18.02;16.30;;;23.60;65.10;;;;;;4209799;28;20186;-59
2023/06/18 07:16:35;;;;;;;17.35;15.65;;;23.70;65.10;;;;;;4208721;28;20055;-59
2023/06/18 07:19:16;;;;;;;;;;;23.80;65.20;;;;;;4223514;27;20051;-60
2023/06/18 07:21:57;;;;;;;18.58;16.70;;;23.80;65.10;;;;;;4226625;28;20688;-59
2023/06/18 07:24:38;;;;;;;18.10;16.20;;;23.80;65.00;;;;;;4219390;27;20125;-59
2023/06/18 07:27:20;;;;;;;17.67;15.70;;;23.80;65.50;;;;;;4222510;28;20058;-53
2023/06/18 07:30:02;;;;;;;18.10;15.77;;;23.90;65.80;;;;;;4219767;28;20201;-59
2023/06/18 07:32:45;;;;;;;17.92;15.35;;;23.90;65.90;;;;;;4226788;27;20120;-60
2023/06/18 07:35:26;;;;;;;18.55;16.65;;;24.00;66.10;;;;;;4209704;28;20178;-60
2023/06/18 07:38:07;;;;;;;17.80;16.10;;;24.10;66.40;;;;;;4208713;28;20050;-59
2023/06/18 07:40:47;;;;;;;16.77;15.18;;;24.10;66.50;;;;;;4209726;28;20055;-59
2023/06/18 07:43:30;;;;;;;17.60;15.60;;;24.10;66.40;;;;;;4209747;28;20059;-59
2023/06/18 07:46:11;;;;;;;16.52;15.10;;;24.10;66.20;;;;;;4208190;28;20055;-59
2023/06/18 07:48:52;;;;;;;17.08;14.82;;;24.20;67.30;;;;;;4224371;27;20051;-60
2023/06/18 07:51:33;;;;;;;17.58;15.43;;;24.20;66.50;;;;;;4226432;27;20501;-59
2023/06/18 07:54:14;;;;;;;16.65;15.05;;;24.20;66.70;;;;;;4210054;28;20120;-60
2023/06/18 07:56:55;;;;;;;;;;;24.30;66.70;;;;;;4209195;28;20054;-59
2023/06/18 07:59:38;;;;;;;17.48;15.07;;;24.30;66.70;;;;;;4209376;28;19985;-59
2023/06/18 08:02:19;;;;;;;17.02;15.30;;;24.30;66.40;;;;;;4226087;27;20050;-59
2023/06/18 08:05:01;;;;;;;15.63;14.18;;;24.40;66.50;;;;;;4226163;28;20504;-59
2023/06/18 08:07:41;;;;;;;15.02;13.63;;;24.40;66.60;;;;;;4225403;28;20055;-59
2023/06/18 08:10:22;;;;;;;15.32;13.80;;;24.40;67.10;;;;;;4211631;28;20063;-59
2023/06/18 08:13:03;;;;;;;15.13;13.02;;;24.50;66.30;;;;;;4226264;28;20054;-59
2023/06/18 08:15:46;;;;;;;14.88;13.45;;;24.50;66.40;;;;;;4224925;28;20070;-59
2023/06/18 08:18:27;;;;;;;16.38;13.05;;;24.50;66.30;;;;;;4209408;28;20547;-60
2023/06/18 08:21:08;;;;;;;15.85;14.18;;;24.60;66.30;;;;;;4209023;28;20125;-59
2023/06/18 08:23:50;;;;;;;14.93;13.40;;;24.60;66.40;;;;;;4207447;28;20070;-58
2023/06/18 08:26:31;;;;;;;14.60;13.15;;;24.60;66.10;;;;;;4209015;28;20054;-59
2023/06/18 08:29:12;;;;;;;;;;;24.60;66.10;;;;;;4209383;28;20062;-59
2023/06/18 08:31:54;;;;;;;14.30;12.20;;;24.70;65.80;;;;;;4225181;28;19942;-59
2023/06/18 08:34:36;;;;;;;13.40;12.10;;;24.70;66.70;;;;;;4225900;28;20124;-59
2023/06/18 08:37:17;;;;;;;13.43;12.02;;;24.70;65.80;;;;;;4209205;28;20117;-60
2023/06/18 08:39:58;;;;;;;13.93;12.50;;;24.70;65.80;;;;;;4224269;28;20050;-59
2023/06/18 08:42:40;;;;;;;13.73;12.30;;;24.80;65.90;;;;;;4225696;28;20054;-59
2023/06/18 08:45:22;;;;;;;12.38;10.95;;;24.80;65.60;;;;;;4208768;28;20083;-59
2023/06/18 08:48:08;;;;;;;14.70;11.80;;;24.80;65.20;;;;;;4223802;28;20048;-59
2023/06/18 08:51:06;;;;;;;12.38;11.18;;;24.90;65.20;;;;;;4225175;27;20051;-58
2023/06/18 08:53:54;;;;;;;12.23;10.90;;;24.90;65.10;;;;;;4224567;28;20058;-60
2023/06/18 08:56:39;;;;;;;13.13;11.82;;;25.00;65.10;;;;;;4224186;28;20054;-58
2023/06/18 08:59:21;;;;;;;13.02;11.63;;;25.00;65.20;;;;;;4208508;28;20055;-59
2023/06/18 09:02:06;;;;;;;13.43;12.02;;;25.00;64.50;;;;;;4223932;28;20062;-59
2023/06/18 09:04:49;;;;;;;13.27;11.90;;;25.10;64.30;;;;;;4220837;28;20086;-61
2023/06/18 09:07:30;;;;;;;11.45;10.25;;;25.10;64.20;;;;;;4208437;28;20129;-59
2023/06/18 09:10:11;;;;;;;12.75;11.55;;;25.20;64.10;;;;;;4224768;28;20050;-59
2023/06/18 09:12:53;;;;;;;12.70;11.43;;;25.20;63.90;;;;;;4208548;28;20170;-58
2023/06/18 09:15:34;;;;;;;13.18;11.95;;;25.20;63.40;;;;;;4213389;28;20117;-58
2023/06/18 09:18:16;;;;;;;10.98;9.45;;;25.30;63.20;;;;;;4213094;28;20059;-59
2023/06/18 09:20:59;;;;;;;12.68;8.68;;;25.30;63.10;;;;;;4214176;28;20563;-59
2023/06/18 09:23:41;;;;;;;11.82;10.73;;;25.30;62.80;;;;;;4225193;28;20620;-58
2023/06/18 09:26:23;;;;;;;11.57;10.48;;;25.40;62.50;;;;;;4208172;28;20066;-59
2023/06/18 09:29:05;;;;;;;11.07;10.02;;;25.40;62.50;;;;;;4208616;28;20074;-58
2023/06/18 09:31:46;;;;;;;11.60;10.40;;;25.50;62.40;;;;;;4205849;28;20051;-58
2023/06/18 09:34:27;;;;;;;10.25;9.35;;;25.50;62.10;;;;;;4208205;28;20100;-59
2023/06/18 09:37:14;;;;;;;10.77;9.77;;;25.50;62.00;;;;;;4211541;28;20105;-58
2023/06/18 09:39:56;;;;;;;10.65;9.50;;;25.60;62.10;;;;;;4211078;28;20181;-59
2023/06/18 09:42:38;;;;;;;10.13;9.13;;;25.60;61.80;;;;;;4210158;28;20058;-59
2023/06/18 09:45:20;;;;;;;12.18;9.35;;;25.70;61.50;;;;;;4209932;28;20066;-58
2023/06/18 09:48:01;;;;;;;11.60;9.70;;;25.70;61.30;;;;;;4209937;28;20062;-58
2023/06/18 09:50:46;;;;;;;11.38;9.77;;;25.80;61.10;;;;;;4211768;28;20120;-58
2023/06/18 09:53:29;;;;;;;10.10;8.55;;;25.80;60.60;;;;;;4201758;28;20502;-59
2023/06/18 09:56:11;;;;;;;13.95;10.30;;;25.80;61.30;;;;;;4226284;27;20458;-58
2023/06/18 09:58:52;;;;;;;12.13;9.57;;;25.90;60.50;;;;;;4211502;28;20110;-58
2023/06/18 10:01:46;;;;;;;10.73;9.63;;;25.90;60.30;;;;;;4225739;27;20061;-59
2023/06/18 10:04:29;;;;;;;9.70;8.30;;;26.00;59.90;;;;;;4210702;28;20178;-57
2023/06/18 10:07:15;;;;;;;9.68;8.77;;;26.00;59.80;;;;;;4227929;27;20055;-58
2023/06/18 10:09:59;;;;;;;9.75;8.43;;;26.00;59.40;;;;;;4226376;27;20144;-59
2023/06/18 10:12:42;;;;;;;9.57;8.60;;;26.10;59.40;;;;;;4202258;28;20522;-58
2023/06/18 10:15:26;;;;;;;9.18;8.38;;;26.10;59.20;;;;;;4210975;28;20050;-58
2023/06/18 10:18:11;;;;;;;11.13;8.63;;;26.20;58.50;;;;;;4210773;28;20086;-59
2023/06/18 10:20:55;;;;;;;9.82;8.35;;;26.20;58.30;;;;;;4210944;28;20050;-59
2023/06/18 10:23:36;;;;;;;10.52;9.52;;;26.20;58.80;;;;;;4212406;27;20063;-59
2023/06/18 10:26:19;;;;;;;10.55;9.55;;;26.30;59.00;;;;;;4228045;27;20187;-58
2023/06/18 10:29:01;;;;;;;8.45;7.68;;;26.30;58.90;;;;;;4209707;28;20051;-58
2023/06/18 10:31:42;;;;;;;11.77;8.95;;;26.40;58.30;;;;;;4226352;27;20054;-58
2023/06/18 10:34:25;;;;;;;8.35;7.55;;;26.40;58.00;;;;;;4227868;27;20470;-58
2023/06/18 10:37:08;;;;;;;9.38;7.70;;;26.40;58.20;;;;;;4227805;27;20062;-59
2023/06/18 10:39:50;;;;;;;9.02;8.13;;;26.40;58.70;;;;;;4227678;27;20051;-59
2023/06/18 10:42:34;;;;;;;9.32;8.32;;;26.40;57.30;;;;;;4227623;27;20105;-59
2023/06/18 10:45:17;;;;;;;9.43;7.82;;;26.50;57.10;;;;;;4210768;28;20070;-58
2023/06/18 10:48:15;;;;;;;9.32;8.43;;;26.50;57.30;;;;;;4227298;27;20088;-58
2023/06/18 10:51:15;;;;;;;9.50;8.70;;;26.50;57.40;;;;;;4226579;27;20063;-59
2023/06/18 10:54:19;;;;;;;10.20;9.18;;;26.60;57.20;;;;;;4226862;27;20059;-59
2023/06/18 10:57:02;;;;;;;8.88;8.07;;;26.60;56.70;;;;;;4227443;27;20402;-58
2023/06/18 10:59:45;;;;;;;9.00;8.10;;;26.60;56.80;;;;;;4210356;28;20059;-58
2023/06/18 11:02:34;;;;;;;8.90;7.85;;;26.60;56.60;;;;;;4226081;27;20613;-59
2023/06/18 11:05:17;;;;;;;8.85;7.88;;;26.70;56.40;;;;;;4226464;27;20058;-57
2023/06/18 11:08:01;;;;;;;9.55;8.07;;;26.70;56.50;;;;;;4208910;28;20514;-58
2023/06/18 11:10:47;;;;;;;9.52;8.27;;;26.70;56.40;;;;;;4209279;28;20059;-57
2023/06/18 11:13:31;;;;;;;9.73;8.77;;;26.70;56.30;;;;;;4220387;27;20123;-58
2023/06/18 11:16:16;;;;;;;8.80;7.90;;;26.80;56.30;;;;;;4223629;27;20051;-58
2023/06/18 11:19:02;;;;;;;8.05;7.32;;;26.80;56.10;;;;;;4217976;27;20054;-58
2023/06/18 11:21:46;;;;;;;9.82;7.93;;;26.90;55.90;;;;;;4208646;28;20054;-58
2023/06/18 11:24:28;;;;;;;9.15;8.30;;;26.90;55.40;;;;;;4224496;28;20402;-59
2023/06/18 11:27:11;;;;;;;8.70;7.95;;;26.90;55.60;;;;;;4209790;28;20055;-59
2023/06/18 11:29:55;;;;;;;7.85;7.15;;;26.90;55.70;;;;;;4212989;28;20063;-58
2023/06/18 11:32:38;;;;;;;9.55;8.13;;;26.90;55.50;;;;;;4216707;27;20058;-59
2023/06/18 11:35:19;;;;;;;8.60;7.80;;;26.90;55.40;;;;;;4243809;27;20058;-59
2023/06/18 11:38:05;;;;;;;;;;;27.00;55.00;;;;;;4243948;27;20065;-59
2023/06/18 11:40:51;;;;;;;8.32;7.63;;;27.00;55.00;;;;;;4226989;27;19926;-58
2023/06/18 11:43:45;;;;;;;7.80;7.00;;;27.00;55.10;;;;;;4224827;28;20066;-59
2023/06/18 11:46:28;;;;;;;7.80;6.93;;;27.00;54.50;;;;;;4209523;28;20050;-57
2023/06/18 11:49:15;;;;;;;8.27;7.47;;;27.10;54.90;;;;;;4224670;27;20120;-59
2023/06/18 11:51:58;;;;;;;8.00;7.30;;;27.10;55.40;;;;;;4226267;27;20051;-58
2023/06/18 11:54:41;;;;;;;8.55;7.40;;;27.20;54.40;;;;;;4234432;27;20189;-59
2023/06/18 11:57:23;;;;;;;9.73;7.38;;;27.20;54.10;;;;;;4232702;27;20070;-59
2023/06/18 12:00:08;;;;;;;9.73;7.35;;;27.20;54.20;;;;;;4206383;27;20099;-58
2023/06/18 12:02:53;;;;;;;7.78;7.05;;;27.20;54.30;;;;;;4231370;27;20494;-57
2023/06/18 12:05:36;;;;;;;;;;;27.30;54.30;;;;;;4193312;28;20059;-57
2023/06/18 12:08:18;;;;;;;9.68;6.88;;;27.30;54.10;;;;;;4209435;28;19931;-58
2023/06/18 12:11:00;;;;;;;7.15;6.55;;;27.30;53.50;;;;;;4208331;28;20100;-58
2023/06/18 12:13:44;;;;;;;7.13;6.43;;;27.30;53.50;;;;;;4222744;27;20180;-58
2023/06/18 12:16:29;;;;;;;8.18;6.47;;;27.40;52.50;;;;;;4243206;27;20054;-58
2023/06/18 12:19:12;;;;;;;7.72;6.18;;;27.40;52.80;;;;;;4242680;27;20103;-58
2023/06/18 12:21:55;;;;;;;7.90;7.20;;;27.40;52.90;;;;;;4237426;27;20173;-58
2023/06/18 12:24:36;;;;;;;8.35;7.65;;;27.40;52.90;;;;;;4226182;27;20069;-58
2023/06/18 12:27:19;;;;;;;7.38;6.68;;;27.40;52.80;;;;;;4207964;28;20375;-59
2023/06/18 12:30:00;;;;;;;7.43;6.82;;;27.40;52.90;;;;;;4208436;28;20386;-58
2023/06/18 12:32:42;;;;;;;7.93;7.15;;;27.40;53.10;;;;;;4225477;27;20057;-57
2023/06/18 12:35:25;;;;;;;7.97;7.30;;;27.40;52.50;;;;;;4243216;27;20062;-59
2023/06/18 12:38:09;;;;;;;8.38;7.00;;;27.50;51.90;;;;;;4236201;27;20082;-57
2023/06/18 12:40:55;;;;;;;7.60;7.00;;;27.50;52.00;;;;;;4219389;28;20055;-57
2023/06/18 12:43:40;;;;;;;10.55;7.18;;;27.50;52.00;;;;;;4208885;28;20519;-58
2023/06/18 12:46:25;;;;;;;8.70;7.90;;;27.50;51.70;;;;;;4215870;28;20398;-57
2023/06/18 12:49:08;;;;;;;7.57;6.93;;;27.60;52.00;;;;;;4225748;28;20063;-57
2023/06/18 12:51:49;;;;;;;7.60;6.95;;;27.60;51.60;;;;;;4224299;28;20055;-58
2023/06/18 12:54:32;;;;;;;7.50;6.90;;;27.70;51.10;;;;;;4225121;27;20054;-58
2023/06/18 12:57:15;;;;;;;7.07;6.57;;;27.60;50.90;;;;;;4211456;28;20055;-58
2023/06/18 12:59:56;;;;;;;6.65;6.15;;;27.70;50.60;;;;;;4225880;28;20047;-58
2023/06/18 13:02:37;;;;;;;7.10;6.50;;;27.70;50.50;;;;;;4221010;28;20124;-59
2023/06/18 13:05:18;;;;;;;7.32;6.72;;;27.80;50.60;;;;;;4224917;27;20058;-58
2023/06/18 13:08:00;;;;;;;7.15;6.45;;;27.70;50.70;;;;;;4219519;28;20058;-58
2023/06/18 13:10:42;;;;;;;;;;;27.80;50.70;;;;;;4225684;28;20100;-59
2023/06/18 13:13:23;;;;;;;6.78;6.18;;;27.80;50.60;;;;;;4225411;28;19942;-58
2023/06/18 13:16:04;;;;;;;7.57;6.90;;;27.80;50.80;;;;;;4225273;28;20188;-58
2023/06/18 13:18:46;;;;;;;6.55;6.00;;;27.80;50.40;;;;;;4207973;28;20181;-57
2023/06/18 13:21:26;;;;;;;;;;;27.80;50.50;;;;;;4211939;28;20054;-58
2023/06/18 13:24:07;;;;;;;7.00;6.35;;;27.80;50.50;;;;;;4207500;28;19935;-58
2023/06/18 13:26:50;;;;;;;6.82;6.32;;;27.80;50.80;;;;;;4207621;28;20519;-59
2023/06/18 13:29:32;;;;;;;6.97;6.40;;;27.80;49.80;;;;;;4208057;28;20427;-58
2023/06/18 13:32:13;;;;;;;7.63;6.63;;;27.80;49.60;;;;;;4207089;28;20100;-58
2023/06/18 13:34:54;;;;;;;;;;;27.90;49.90;;;;;;4192325;28;20056;-58
2023/06/18 13:37:35;;;;;;;7.07;6.43;;;27.90;50.20;;;;;;4211720;28;19966;-59
2023/06/18 13:40:16;;;;;;;6.70;6.13;;;27.90;50.20;;;;;;4206726;28;20061;-58
2023/06/18 13:42:58;;;;;;;7.18;6.50;;;27.90;50.30;;;;;;4215839;28;20515;-57
2023/06/18 13:45:40;;;;;;;6.88;6.30;;;27.90;49.20;;;;;;4223909;28;20148;-59
2023/06/18 13:48:20;;;;;;;7.07;6.38;;;27.90;49.40;;;;;;4224817;28;20046;-57
2023/06/18 13:51:01;;;;;;;;;;;28.00;49.60;;;;;;4209079;28;20125;-58
2023/06/18 13:53:42;;;;;;;6.35;5.82;;;28.00;49.60;;;;;;4223553;28;19976;-57
2023/06/18 13:56:23;;;;;;;7.80;6.40;;;28.00;49.60;;;;;;4234452;27;20092;-58
2023/06/18 13:59:06;;;;;;;7.22;6.55;;;28.00;49.10;;;;;;4242305;27;20776;-57
2023/06/18 14:01:47;;;;;;;7.10;6.40;;;28.00;50.10;;;;;;4234528;27;20155;-58